sensor_id;sensor_type;location;lat;lon;timestamp;P1;durP1;ratioP1;P2;durP2;ratioP2
28447;SDS011;15675;52.870;-1.416;2023-07-13T00:02:08;9.55;;;2.92;;
28447;SDS011;15675;52.870;-1.416;2023-07-13T00:04:34;5.45;;;2.88;;
28447;SDS011;15675;52.870;-1.416;2023-07-13T00:07:00;9.98;;;2.80;;
28447;SDS011;15675;52.870;-1.416;2023-07-13T00:09:26;5.50;;;2.40;;
28447;SDS011;15675;52.870;-1.416;2023-07-13T00:11:53;8.30;;;2.40;;
28447;SDS011;15675;52.870;-1.416;2023-07-13T00:14:20;6.18;;;2.63;;
28447;SDS011;15675;52.870;-1.416;2023-07-13T00:16:46;8.23;;;2.90;;
28447;SDS011;15675;52.870;-1.416;2023-07-13T00:19:12;7.18;;;2.97;;
28447;SDS011;15675;52.870;-1.416;2023-07-13T00:21:39;10.50;;;3.08;;
28447;SDS011;15675;52.870;-1.416;2023-07-13T00:24:06;9.43;;;3.28;;
28447;SDS011;15675;52.870;-1.416;2023-07-13T00:26:32;5.57;;;2.80;;
28447;SDS011;15675;52.870;-1.416;2023-07-13T00:28:59;6.32;;;2.97;;
28447;SDS011;15675;52.870;-1.416;2023-07-13T00:31:24;7.53;;;3.17;;
28447;SDS011;15675;52.870;-1.416;2023-07-13T00:33:50;7.93;;;3.05;;
28447;SDS011;15675;52.870;-1.416;2023-07-13T00:36:16;7.78;;;2.67;;
28447;SDS011;15675;52.870;-1.416;2023-07-13T00:38:42;8.13;;;3.63;;
28447;SDS011;15675;52.870;-1.416;2023-07-13T00:41:08;7.40;;;2.53;;
28447;SDS011;15675;52.870;-1.416;2023-07-13T00:43:35;7.47;;;2.75;;
28447;SDS011;15675;52.870;-1.416;2023-07-13T00:48:29;7.72;;;2.60;;
28447;SDS011;15675;52.870;-1.416;2023-07-13T00:50:58;8.05;;;2.83;;
28447;SDS011;15675;52.870;-1.416;2023-07-13T00:53:27;9.35;;;2.80;;
28447;SDS011;15675;52.870;-1.416;2023-07-13T00:55:55;10.68;;;3.08;;
28447;SDS011;15675;52.870;-1.416;2023-07-13T00:58:22;9.18;;;3.13;;
28447;SDS011;15675;52.870;-1.416;2023-07-13T01:00:49;9.32;;;3.17;;
28447;SDS011;15675;52.870;-1.416;2023-07-13T01:03:16;9.60;;;3.20;;
28447;SDS011;15675;52.870;-1.416;2023-07-13T01:05:42;9.35;;;3.40;;
28447;SDS011;15675;52.870;-1.416;2023-07-13T01:08:08;6.63;;;3.53;;
28447;SDS011;15675;52.870;-1.416;2023-07-13T01:10:34;8.70;;;3.10;;
28447;SDS011;15675;52.870;-1.416;2023-07-13T01:13:07;7.85;;;3.80;;
28447;SDS011;15675;52.870;-1.416;2023-07-13T01:15:39;7.03;;;3.55;;
28447;SDS011;15675;52.870;-1.416;2023-07-13T01:18:07;9.00;;;3.53;;
28447;SDS011;15675;52.870;-1.416;2023-07-13T01:20:36;13.85;;;3.05;;
28447;SDS011;15675;52.870;-1.416;2023-07-13T01:23:05;13.43;;;3.38;;
28447;SDS011;15675;52.870;-1.416;2023-07-13T01:25:34;10.25;;;3.65;;
28447;SDS011;15675;52.870;-1.416;2023-07-13T01:28:01;8.75;;;2.95;;
28447;SDS011;15675;52.870;-1.416;2023-07-13T01:30:28;6.68;;;3.15;;
28447;SDS011;15675;52.870;-1.416;2023-07-13T01:32:54;14.60;;;3.58;;
28447;SDS011;15675;52.870;-1.416;2023-07-13T01:35:19;7.22;;;3.67;;
28447;SDS011;15675;52.870;-1.416;2023-07-13T01:37:45;8.07;;;3.63;;
28447;SDS011;15675;52.870;-1.416;2023-07-13T01:40:11;8.07;;;3.35;;
28447;SDS011;15675;52.870;-1.416;2023-07-13T01:42:37;6.15;;;3.58;;
28447;SDS011;15675;52.870;-1.416;2023-07-13T01:45:03;7.97;;;3.60;;
28447;SDS011;15675;52.870;-1.416;2023-07-13T01:47:29;9.55;;;3.70;;
28447;SDS011;15675;52.870;-1.416;2023-07-13T01:49:56;5.93;;;3.40;;
28447;SDS011;15675;52.870;-1.416;2023-07-13T01:52:23;7.78;;;3.40;;
28447;SDS011;15675;52.870;-1.416;2023-07-13T01:54:48;12.05;;;4.22;;
28447;SDS011;15675;52.870;-1.416;2023-07-13T01:57:14;8.63;;;3.80;;
28447;SDS011;15675;52.870;-1.416;2023-07-13T01:59:40;9.45;;;4.43;;
28447;SDS011;15675;52.870;-1.416;2023-07-13T02:02:05;11.40;;;4.07;;
28447;SDS011;15675;52.870;-1.416;2023-07-13T02:04:31;8.75;;;4.18;;
28447;SDS011;15675;52.870;-1.416;2023-07-13T02:06:56;10.70;;;4.05;;
28447;SDS011;15675;52.870;-1.416;2023-07-13T02:09:22;9.20;;;3.92;;
28447;SDS011;15675;52.870;-1.416;2023-07-13T02:11:47;6.53;;;3.53;;
28447;SDS011;15675;52.870;-1.416;2023-07-13T02:14:13;11.90;;;4.28;;
28447;SDS011;15675;52.870;-1.416;2023-07-13T02:16:40;11.55;;;4.22;;
28447;SDS011;15675;52.870;-1.416;2023-07-13T02:19:06;10.50;;;4.72;;
28447;SDS011;15675;52.870;-1.416;2023-07-13T02:21:32;10.73;;;4.38;;
28447;SDS011;15675;52.870;-1.416;2023-07-13T02:23:58;9.15;;;4.22;;
28447;SDS011;15675;52.870;-1.416;2023-07-13T02:26:25;7.60;;;4.10;;
28447;SDS011;15675;52.870;-1.416;2023-07-13T02:28:51;12.38;;;4.22;;
28447;SDS011;15675;52.870;-1.416;2023-07-13T02:31:17;10.00;;;5.10;;
28447;SDS011;15675;52.870;-1.416;2023-07-13T02:33:44;10.27;;;4.47;;
28447;SDS011;15675;52.870;-1.416;2023-07-13T02:36:09;9.60;;;4.93;;
28447;SDS011;15675;52.870;-1.416;2023-07-13T02:38:36;8.25;;;4.50;;
28447;SDS011;15675;52.870;-1.416;2023-07-13T02:41:03;10.20;;;4.60;;
28447;SDS011;15675;52.870;-1.416;2023-07-13T02:43:29;15.15;;;5.78;;
28447;SDS011;15675;52.870;-1.416;2023-07-13T02:45:55;10.85;;;5.07;;
28447;SDS011;15675;52.870;-1.416;2023-07-13T02:48:21;9.20;;;4.75;;
28447;SDS011;15675;52.870;-1.416;2023-07-13T02:50:47;12.30;;;5.00;;
28447;SDS011;15675;52.870;-1.416;2023-07-13T02:53:12;9.05;;;4.82;;
28447;SDS011;15675;52.870;-1.416;2023-07-13T02:55:38;11.00;;;5.32;;
28447;SDS011;15675;52.870;-1.416;2023-07-13T02:58:06;12.13;;;5.65;;
28447;SDS011;15675;52.870;-1.416;2023-07-13T03:00:31;10.73;;;5.32;;
28447;SDS011;15675;52.870;-1.416;2023-07-13T03:02:57;10.50;;;4.57;;
28447;SDS011;15675;52.870;-1.416;2023-07-13T03:05:23;13.90;;;5.60;;
28447;SDS011;15675;52.870;-1.416;2023-07-13T03:07:49;10.02;;;5.05;;
28447;SDS011;15675;52.870;-1.416;2023-07-13T03:10:14;11.07;;;5.70;;
28447;SDS011;15675;52.870;-1.416;2023-07-13T03:12:41;12.73;;;5.05;;
28447;SDS011;15675;52.870;-1.416;2023-07-13T03:15:07;8.73;;;4.82;;
28447;SDS011;15675;52.870;-1.416;2023-07-13T03:17:33;10.70;;;5.38;;
28447;SDS011;15675;52.870;-1.416;2023-07-13T03:19:58;9.00;;;6.07;;
28447;SDS011;15675;52.870;-1.416;2023-07-13T03:22:24;14.10;;;6.03;;
28447;SDS011;15675;52.870;-1.416;2023-07-13T03:24:49;12.27;;;4.90;;
28447;SDS011;15675;52.870;-1.416;2023-07-13T03:27:15;15.48;;;5.57;;
28447;SDS011;15675;52.870;-1.416;2023-07-13T03:29:42;15.05;;;6.05;;
28447;SDS011;15675;52.870;-1.416;2023-07-13T03:32:08;13.20;;;5.75;;
28447;SDS011;15675;52.870;-1.416;2023-07-13T03:34:33;14.00;;;6.00;;
28447;SDS011;15675;52.870;-1.416;2023-07-13T03:36:59;12.77;;;5.55;;
28447;SDS011;15675;52.870;-1.416;2023-07-13T03:39:24;10.60;;;5.63;;
28447;SDS011;15675;52.870;-1.416;2023-07-13T03:41:50;9.20;;;4.55;;
28447;SDS011;15675;52.870;-1.416;2023-07-13T03:44:16;8.48;;;5.22;;
28447;SDS011;15675;52.870;-1.416;2023-07-13T03:46:43;11.95;;;4.90;;
28447;SDS011;15675;52.870;-1.416;2023-07-13T03:49:09;6.25;;;4.30;;
28447;SDS011;15675;52.870;-1.416;2023-07-13T03:51:35;8.63;;;5.20;;
28447;SDS011;15675;52.870;-1.416;2023-07-13T03:54:00;12.00;;;4.80;;
28447;SDS011;15675;52.870;-1.416;2023-07-13T03:56:27;11.48;;;4.72;;
28447;SDS011;15675;52.870;-1.416;2023-07-13T03:58:54;8.32;;;4.10;;
28447;SDS011;15675;52.870;-1.416;2023-07-13T04:01:20;6.68;;;3.83;;
28447;SDS011;15675;52.870;-1.416;2023-07-13T04:03:47;7.47;;;4.10;;
28447;SDS011;15675;52.870;-1.416;2023-07-13T04:06:16;7.85;;;4.38;;
28447;SDS011;15675;52.870;-1.416;2023-07-13T04:08:47;8.00;;;4.05;;
28447;SDS011;15675;52.870;-1.416;2023-07-13T04:11:16;12.00;;;4.70;;
28447;SDS011;15675;52.870;-1.416;2023-07-13T04:13:42;9.10;;;3.92;;
28447;SDS011;15675;52.870;-1.416;2023-07-13T04:16:07;8.98;;;3.63;;
28447;SDS011;15675;52.870;-1.416;2023-07-13T04:18:33;7.45;;;3.85;;
28447;SDS011;15675;52.870;-1.416;2023-07-13T04:20:58;6.35;;;4.38;;
28447;SDS011;15675;52.870;-1.416;2023-07-13T04:23:24;9.10;;;3.70;;
28447;SDS011;15675;52.870;-1.416;2023-07-13T04:25:51;6.07;;;3.20;;
28447;SDS011;15675;52.870;-1.416;2023-07-13T04:28:19;7.50;;;3.75;;
28447;SDS011;15675;52.870;-1.416;2023-07-13T04:30:48;8.82;;;3.90;;
28447;SDS011;15675;52.870;-1.416;2023-07-13T04:33:14;7.70;;;3.80;;
28447;SDS011;15675;52.870;-1.416;2023-07-13T04:35:43;8.93;;;3.45;;
28447;SDS011;15675;52.870;-1.416;2023-07-13T04:38:09;8.60;;;3.45;;
28447;SDS011;15675;52.870;-1.416;2023-07-13T04:40:36;6.22;;;3.42;;
28447;SDS011;15675;52.870;-1.416;2023-07-13T04:43:02;9.77;;;3.50;;
28447;SDS011;15675;52.870;-1.416;2023-07-13T04:45:28;6.43;;;3.42;;
28447;SDS011;15675;52.870;-1.416;2023-07-13T04:47:53;6.38;;;3.35;;
28447;SDS011;15675;52.870;-1.416;2023-07-13T04:50:19;5.75;;;3.25;;
28447;SDS011;15675;52.870;-1.416;2023-07-13T04:52:51;8.23;;;3.63;;
28447;SDS011;15675;52.870;-1.416;2023-07-13T04:55:17;5.47;;;3.25;;
28447;SDS011;15675;52.870;-1.416;2023-07-13T04:57:43;8.15;;;3.53;;
28447;SDS011;15675;52.870;-1.416;2023-07-13T05:00:08;8.32;;;3.38;;
28447;SDS011;15675;52.870;-1.416;2023-07-13T05:02:35;8.07;;;3.53;;
28447;SDS011;15675;52.870;-1.416;2023-07-13T05:05:02;6.07;;;3.63;;
28447;SDS011;15675;52.870;-1.416;2023-07-13T05:07:29;9.07;;;3.72;;
28447;SDS011;15675;52.870;-1.416;2023-07-13T05:09:54;9.00;;;3.53;;
28447;SDS011;15675;52.870;-1.416;2023-07-13T05:12:20;9.00;;;3.55;;
28447;SDS011;15675;52.870;-1.416;2023-07-13T05:14:45;5.75;;;3.22;;
28447;SDS011;15675;52.870;-1.416;2023-07-13T05:17:11;8.93;;;3.30;;
28447;SDS011;15675;52.870;-1.416;2023-07-13T05:19:37;6.10;;;3.17;;
28447;SDS011;15675;52.870;-1.416;2023-07-13T05:22:03;8.02;;;3.50;;
28447;SDS011;15675;52.870;-1.416;2023-07-13T05:24:29;10.02;;;3.40;;
28447;SDS011;15675;52.870;-1.416;2023-07-13T05:26:55;6.53;;;3.22;;
28447;SDS011;15675;52.870;-1.416;2023-07-13T05:29:21;9.23;;;3.55;;
28447;SDS011;15675;52.870;-1.416;2023-07-13T05:31:47;7.82;;;3.35;;
28447;SDS011;15675;52.870;-1.416;2023-07-13T05:34:14;6.20;;;2.85;;
28447;SDS011;15675;52.870;-1.416;2023-07-13T05:36:40;6.28;;;2.80;;
28447;SDS011;15675;52.870;-1.416;2023-07-13T05:39:06;10.18;;;3.35;;
28447;SDS011;15675;52.870;-1.416;2023-07-13T05:41:31;8.05;;;3.15;;
28447;SDS011;15675;52.870;-1.416;2023-07-13T05:43:57;12.32;;;3.53;;
28447;SDS011;15675;52.870;-1.416;2023-07-13T05:46:23;10.07;;;3.45;;
28447;SDS011;15675;52.870;-1.416;2023-07-13T05:48:48;8.80;;;3.60;;
28447;SDS011;15675;52.870;-1.416;2023-07-13T05:51:14;7.63;;;3.10;;
28447;SDS011;15675;52.870;-1.416;2023-07-13T05:53:40;7.30;;;3.50;;
28447;SDS011;15675;52.870;-1.416;2023-07-13T05:56:05;8.48;;;3.97;;
28447;SDS011;15675;52.870;-1.416;2023-07-13T05:58:31;9.23;;;3.78;;
28447;SDS011;15675;52.870;-1.416;2023-07-13T06:01:01;12.52;;;4.18;;
28447;SDS011;15675;52.870;-1.416;2023-07-13T06:03:28;9.30;;;3.70;;
28447;SDS011;15675;52.870;-1.416;2023-07-13T06:05:54;5.00;;;3.53;;
28447;SDS011;15675;52.870;-1.416;2023-07-13T06:08:20;7.15;;;3.55;;
28447;SDS011;15675;52.870;-1.416;2023-07-13T06:10:45;10.07;;;4.10;;
28447;SDS011;15675;52.870;-1.416;2023-07-13T06:13:11;6.90;;;3.60;;
28447;SDS011;15675;52.870;-1.416;2023-07-13T06:15:36;9.38;;;3.72;;
28447;SDS011;15675;52.870;-1.416;2023-07-13T06:18:02;9.65;;;3.40;;
28447;SDS011;15675;52.870;-1.416;2023-07-13T06:20:28;9.95;;;3.78;;
28447;SDS011;15675;52.870;-1.416;2023-07-13T06:22:54;8.88;;;3.83;;
28447;SDS011;15675;52.870;-1.416;2023-07-13T06:25:20;7.45;;;3.40;;
28447;SDS011;15675;52.870;-1.416;2023-07-13T06:27:45;10.60;;;3.47;;
28447;SDS011;15675;52.870;-1.416;2023-07-13T06:30:11;11.30;;;3.67;;
28447;SDS011;15675;52.870;-1.416;2023-07-13T06:32:37;6.70;;;3.17;;
28447;SDS011;15675;52.870;-1.416;2023-07-13T06:35:03;6.88;;;3.20;;
28447;SDS011;15675;52.870;-1.416;2023-07-13T06:37:29;8.88;;;2.97;;
28447;SDS011;15675;52.870;-1.416;2023-07-13T06:39:54;7.05;;;3.25;;
28447;SDS011;15675;52.870;-1.416;2023-07-13T06:42:20;5.80;;;3.30;;
28447;SDS011;15675;52.870;-1.416;2023-07-13T06:44:46;7.70;;;2.85;;
28447;SDS011;15675;52.870;-1.416;2023-07-13T06:47:11;6.25;;;3.13;;
28447;SDS011;15675;52.870;-1.416;2023-07-13T06:49:37;5.65;;;3.10;;
28447;SDS011;15675;52.870;-1.416;2023-07-13T06:52:03;6.07;;;2.63;;
28447;SDS011;15675;52.870;-1.416;2023-07-13T06:54:29;5.43;;;2.55;;
28447;SDS011;15675;52.870;-1.416;2023-07-13T06:56:54;9.23;;;2.90;;
28447;SDS011;15675;52.870;-1.416;2023-07-13T06:59:20;7.15;;;3.28;;
28447;SDS011;15675;52.870;-1.416;2023-07-13T07:01:45;6.80;;;2.67;;
28447;SDS011;15675;52.870;-1.416;2023-07-13T07:04:11;3.90;;;2.42;;
28447;SDS011;15675;52.870;-1.416;2023-07-13T07:06:36;9.43;;;3.05;;
28447;SDS011;15675;52.870;-1.416;2023-07-13T07:09:02;4.43;;;2.17;;
28447;SDS011;15675;52.870;-1.416;2023-07-13T07:11:28;4.45;;;2.30;;
28447;SDS011;15675;52.870;-1.416;2023-07-13T07:13:53;9.20;;;2.90;;
28447;SDS011;15675;52.870;-1.416;2023-07-13T07:16:19;5.45;;;2.38;;
28447;SDS011;15675;52.870;-1.416;2023-07-13T07:18:46;11.85;;;2.10;;
28447;SDS011;15675;52.870;-1.416;2023-07-13T07:21:12;5.78;;;2.13;;
28447;SDS011;15675;52.870;-1.416;2023-07-13T07:23:38;5.32;;;2.30;;
28447;SDS011;15675;52.870;-1.416;2023-07-13T07:26:04;4.20;;;2.17;;
28447;SDS011;15675;52.870;-1.416;2023-07-13T07:28:30;8.07;;;2.38;;
28447;SDS011;15675;52.870;-1.416;2023-07-13T07:30:57;4.25;;;2.05;;
28447;SDS011;15675;52.870;-1.416;2023-07-13T07:33:23;3.42;;;1.98;;
28447;SDS011;15675;52.870;-1.416;2023-07-13T07:35:50;4.30;;;1.67;;
28447;SDS011;15675;52.870;-1.416;2023-07-13T07:38:16;3.67;;;1.77;;
28447;SDS011;15675;52.870;-1.416;2023-07-13T07:40:42;7.82;;;2.30;;
28447;SDS011;15675;52.870;-1.416;2023-07-13T07:43:08;5.47;;;2.10;;
28447;SDS011;15675;52.870;-1.416;2023-07-13T07:45:35;10.73;;;1.50;;
28447;SDS011;15675;52.870;-1.416;2023-07-13T07:48:03;4.43;;;1.50;;
28447;SDS011;15675;52.870;-1.416;2023-07-13T07:50:29;4.20;;;1.70;;
28447;SDS011;15675;52.870;-1.416;2023-07-13T07:52:55;3.92;;;1.90;;
28447;SDS011;15675;52.870;-1.416;2023-07-13T07:55:21;3.40;;;1.67;;
28447;SDS011;15675;52.870;-1.416;2023-07-13T07:57:48;6.13;;;1.95;;
28447;SDS011;15675;52.870;-1.416;2023-07-13T08:00:13;5.28;;;2.00;;
28447;SDS011;15675;52.870;-1.416;2023-07-13T08:02:40;6.13;;;1.70;;
28447;SDS011;15675;52.870;-1.416;2023-07-13T08:05:07;4.43;;;1.80;;
28447;SDS011;15675;52.870;-1.416;2023-07-13T08:07:33;5.60;;;1.40;;
28447;SDS011;15675;52.870;-1.416;2023-07-13T08:09:59;4.15;;;2.30;;
28447;SDS011;15675;52.870;-1.416;2023-07-13T08:12:25;9.10;;;3.75;;
28447;SDS011;15675;52.870;-1.416;2023-07-13T08:14:51;6.32;;;1.77;;
28447;SDS011;15675;52.870;-1.416;2023-07-13T08:17:22;18.35;;;2.45;;
28447;SDS011;15675;52.870;-1.416;2023-07-13T08:19:49;1.73;;;0.88;;
28447;SDS011;15675;52.870;-1.416;2023-07-13T08:22:15;4.43;;;1.95;;
28447;SDS011;15675;52.870;-1.416;2023-07-13T08:24:41;5.25;;;1.95;;
28447;SDS011;15675;52.870;-1.416;2023-07-13T08:27:08;6.15;;;2.03;;
28447;SDS011;15675;52.870;-1.416;2023-07-13T08:29:33;5.05;;;1.45;;
28447;SDS011;15675;52.870;-1.416;2023-07-13T08:31:59;5.57;;;1.70;;
28447;SDS011;15675;52.870;-1.416;2023-07-13T08:34:25;74.63;;;4.28;;
28447;SDS011;15675;52.870;-1.416;2023-07-13T08:36:51;40.85;;;2.95;;
28447;SDS011;15675;52.870;-1.416;2023-07-13T08:39:16;7.38;;;1.80;;
28447;SDS011;15675;52.870;-1.416;2023-07-13T08:41:42;5.35;;;1.67;;
28447;SDS011;15675;52.870;-1.416;2023-07-13T08:44:17;4.07;;;1.63;;
28447;SDS011;15675;52.870;-1.416;2023-07-13T08:46:51;112.95;;;5.85;;
28447;SDS011;15675;52.870;-1.416;2023-07-13T08:49:21;4.60;;;1.73;;
28447;SDS011;15675;52.870;-1.416;2023-07-13T08:51:53;5.82;;;1.38;;
28447;SDS011;15675;52.870;-1.416;2023-07-13T08:57:25;4.35;;;1.83;;
28447;SDS011;15675;52.870;-1.416;2023-07-13T09:02:34;5.03;;;1.45;;
28447;SDS011;15675;52.870;-1.416;2023-07-13T09:05:10;6.05;;;1.70;;
28447;SDS011;15675;52.870;-1.416;2023-07-13T09:07:45;10.52;;;1.85;;
28447;SDS011;15675;52.870;-1.416;2023-07-13T09:10:41;3.35;;;1.52;;
28447;SDS011;15675;52.870;-1.416;2023-07-13T09:16:27;5.90;;;1.90;;
28447;SDS011;15675;52.870;-1.416;2023-07-13T09:18:54;15.40;;;1.77;;
28447;SDS011;15675;52.870;-1.416;2023-07-13T09:21:29;4.82;;;1.30;;
28447;SDS011;15675;52.870;-1.416;2023-07-13T09:23:59;8.38;;;1.60;;
28447;SDS011;15675;52.870;-1.416;2023-07-13T09:26:34;4.80;;;1.50;;
28447;SDS011;15675;52.870;-1.416;2023-07-13T09:29:03;4.60;;;1.40;;
28447;SDS011;15675;52.870;-1.416;2023-07-13T09:31:45;6.55;;;1.52;;
28447;SDS011;15675;52.870;-1.416;2023-07-13T09:34:14;5.82;;;1.55;;
28447;SDS011;15675;52.870;-1.416;2023-07-13T09:36:40;2.65;;;1.48;;
28447;SDS011;15675;52.870;-1.416;2023-07-13T09:42:16;3.60;;;1.75;;
28447;SDS011;15675;52.870;-1.416;2023-07-13T09:47:16;3.70;;;1.30;;
28447;SDS011;15675;52.870;-1.416;2023-07-13T09:49:44;4.47;;;1.48;;
28447;SDS011;15675;52.870;-1.416;2023-07-13T09:52:14;8.80;;;1.48;;
28447;SDS011;15675;52.870;-1.416;2023-07-13T09:54:44;4.95;;;1.25;;
28447;SDS011;15675;52.870;-1.416;2023-07-13T09:57:14;3.63;;;1.40;;
28447;SDS011;15675;52.870;-1.416;2023-07-13T09:59:46;7.20;;;1.17;;
28447;SDS011;15675;52.870;-1.416;2023-07-13T10:02:23;7.13;;;1.58;;
28447;SDS011;15675;52.870;-1.416;2023-07-13T10:07:26;4.60;;;1.45;;
28447;SDS011;15675;52.870;-1.416;2023-07-13T10:09:53;3.00;;;1.42;;
28447;SDS011;15675;52.870;-1.416;2023-07-13T10:12:20;5.38;;;1.90;;
28447;SDS011;15675;52.870;-1.416;2023-07-13T10:14:48;3.30;;;2.00;;
28447;SDS011;15675;52.870;-1.416;2023-07-13T10:17:20;5.53;;;1.38;;
28447;SDS011;15675;52.870;-1.416;2023-07-13T10:19:57;5.80;;;1.45;;
28447;SDS011;15675;52.870;-1.416;2023-07-13T10:23:12;4.68;;;1.45;;
28447;SDS011;15675;52.870;-1.416;2023-07-13T10:25:26;5.22;;;1.50;;
28447;SDS011;15675;52.870;-1.416;2023-07-13T10:28:04;2.80;;;1.23;;
28447;SDS011;15675;52.870;-1.416;2023-07-13T10:30:38;3.45;;;1.50;;
28447;SDS011;15675;52.870;-1.416;2023-07-13T10:33:10;4.28;;;1.25;;
28447;SDS011;15675;52.870;-1.416;2023-07-13T10:35:37;4.07;;;1.23;;
28447;SDS011;15675;52.870;-1.416;2023-07-13T10:38:07;4.32;;;1.42;;
28447;SDS011;15675;52.870;-1.416;2023-07-13T10:40:37;2.47;;;1.05;;
28447;SDS011;15675;52.870;-1.416;2023-07-13T10:43:14;3.63;;;1.50;;
28447;SDS011;15675;52.870;-1.416;2023-07-13T10:45:46;4.32;;;1.60;;
28447;SDS011;15675;52.870;-1.416;2023-07-13T10:48:15;1.90;;;1.23;;
28447;SDS011;15675;52.870;-1.416;2023-07-13T10:50:43;7.53;;;1.45;;
28447;SDS011;15675;52.870;-1.416;2023-07-13T11:06:29;5.10;;;1.55;;
28447;SDS011;15675;52.870;-1.416;2023-07-13T11:17:36;2.45;;;1.27;;
28447;SDS011;15675;52.870;-1.416;2023-07-13T11:22:47;4.55;;;1.30;;
28447;SDS011;15675;52.870;-1.416;2023-07-13T11:28:04;4.90;;;1.52;;
28447;SDS011;15675;52.870;-1.416;2023-07-13T11:30:35;3.85;;;1.52;;
28447;SDS011;15675;52.870;-1.416;2023-07-13T11:36:15;4.03;;;1.60;;
28447;SDS011;15675;52.870;-1.416;2023-07-13T11:39:04;2.40;;;1.40;;
28447;SDS011;15675;52.870;-1.416;2023-07-13T11:41:35;3.95;;;1.73;;
28447;SDS011;15675;52.870;-1.416;2023-07-13T11:44:23;7.30;;;2.30;;
28447;SDS011;15675;52.870;-1.416;2023-07-13T11:46:51;3.83;;;1.80;;
28447;SDS011;15675;52.870;-1.416;2023-07-13T11:49:19;4.13;;;1.83;;
28447;SDS011;15675;52.870;-1.416;2023-07-13T11:51:46;4.55;;;2.33;;
28447;SDS011;15675;52.870;-1.416;2023-07-13T11:54:20;8.38;;;2.97;;
28447;SDS011;15675;52.870;-1.416;2023-07-13T11:56:50;4.75;;;1.92;;
28447;SDS011;15675;52.870;-1.416;2023-07-13T11:59:15;4.65;;;1.70;;
28447;SDS011;15675;52.870;-1.416;2023-07-13T12:01:43;7.50;;;1.80;;
28447;SDS011;15675;52.870;-1.416;2023-07-13T12:04:35;8.63;;;1.83;;
28447;SDS011;15675;52.870;-1.416;2023-07-13T12:07:04;5.60;;;1.75;;
28447;SDS011;15675;52.870;-1.416;2023-07-13T12:09:40;5.72;;;1.90;;
28447;SDS011;15675;52.870;-1.416;2023-07-13T12:12:11;4.65;;;1.70;;
28447;SDS011;15675;52.870;-1.416;2023-07-13T12:14:38;10.30;;;1.63;;
28447;SDS011;15675;52.870;-1.416;2023-07-13T12:17:20;3.33;;;1.23;;
28447;SDS011;15675;52.870;-1.416;2023-07-13T12:22:14;3.95;;;1.55;;
28447;SDS011;15675;52.870;-1.416;2023-07-13T12:24:42;4.60;;;1.80;;
28447;SDS011;15675;52.870;-1.416;2023-07-13T12:27:22;6.80;;;1.70;;
28447;SDS011;15675;52.870;-1.416;2023-07-13T12:32:26;3.40;;;1.55;;
28447;SDS011;15675;52.870;-1.416;2023-07-13T12:34:53;3.10;;;1.92;;
28447;SDS011;15675;52.870;-1.416;2023-07-13T12:37:21;5.80;;;1.98;;
28447;SDS011;15675;52.870;-1.416;2023-07-13T12:39:48;6.25;;;2.03;;
28447;SDS011;15675;52.870;-1.416;2023-07-13T12:44:50;7.18;;;2.30;;
28447;SDS011;15675;52.870;-1.416;2023-07-13T12:47:19;7.50;;;2.20;;
28447;SDS011;15675;52.870;-1.416;2023-07-13T12:49:50;3.67;;;1.75;;
28447;SDS011;15675;52.870;-1.416;2023-07-13T12:52:23;6.80;;;2.30;;
28447;SDS011;15675;52.870;-1.416;2023-07-13T12:55:07;3.95;;;1.80;;
28447;SDS011;15675;52.870;-1.416;2023-07-13T12:57:41;4.82;;;2.15;;
28447;SDS011;15675;52.870;-1.416;2023-07-13T13:00:23;4.47;;;1.52;;
28447;SDS011;15675;52.870;-1.416;2023-07-13T13:02:53;3.78;;;1.85;;
28447;SDS011;15675;52.870;-1.416;2023-07-13T13:05:21;5.38;;;1.90;;
28447;SDS011;15675;52.870;-1.416;2023-07-13T13:07:49;3.78;;;1.80;;
28447;SDS011;15675;52.870;-1.416;2023-07-13T13:10:15;4.68;;;2.00;;
28447;SDS011;15675;52.870;-1.416;2023-07-13T13:12:41;3.60;;;1.67;;
28447;SDS011;15675;52.870;-1.416;2023-07-13T13:15:10;5.32;;;2.00;;
28447;SDS011;15675;52.870;-1.416;2023-07-13T13:17:39;6.47;;;2.00;;
28447;SDS011;15675;52.870;-1.416;2023-07-13T13:20:15;6.20;;;2.10;;
28447;SDS011;15675;52.870;-1.416;2023-07-13T13:22:44;3.85;;;1.70;;
28447;SDS011;15675;52.870;-1.416;2023-07-13T13:25:11;4.68;;;2.10;;
28447;SDS011;15675;52.870;-1.416;2023-07-13T13:27:37;3.65;;;1.95;;
28447;SDS011;15675;52.870;-1.416;2023-07-13T13:30:15;4.03;;;1.95;;
28447;SDS011;15675;52.870;-1.416;2023-07-13T13:32:44;3.55;;;2.22;;
28447;SDS011;15675;52.870;-1.416;2023-07-13T13:35:15;5.93;;;2.13;;
28447;SDS011;15675;52.870;-1.416;2023-07-13T13:37:42;4.07;;;1.83;;
28447;SDS011;15675;52.870;-1.416;2023-07-13T13:40:20;4.35;;;2.53;;
28447;SDS011;15675;52.870;-1.416;2023-07-13T13:45:18;5.47;;;1.98;;
28447;SDS011;15675;52.870;-1.416;2023-07-13T13:47:45;11.75;;;2.10;;
28447;SDS011;15675;52.870;-1.416;2023-07-13T13:50:14;3.65;;;1.90;;
28447;SDS011;15675;52.870;-1.416;2023-07-13T13:52:43;3.72;;;1.77;;
28447;SDS011;15675;52.870;-1.416;2023-07-13T13:55:19;3.88;;;1.98;;
28447;SDS011;15675;52.870;-1.416;2023-07-13T13:57:47;5.03;;;2.05;;
28447;SDS011;15675;52.870;-1.416;2023-07-13T14:00:13;4.80;;;1.92;;
28447;SDS011;15675;52.870;-1.416;2023-07-13T14:02:43;4.22;;;1.90;;
28447;SDS011;15675;52.870;-1.416;2023-07-13T14:05:17;4.03;;;2.60;;
28447;SDS011;15675;52.870;-1.416;2023-07-13T14:07:46;5.40;;;2.53;;
28447;SDS011;15675;52.870;-1.416;2023-07-13T14:10:15;5.55;;;2.15;;
28447;SDS011;15675;52.870;-1.416;2023-07-13T14:13:00;3.85;;;2.40;;
28447;SDS011;15675;52.870;-1.416;2023-07-13T14:15:26;5.68;;;1.98;;
28447;SDS011;15675;52.870;-1.416;2023-07-13T14:17:53;3.83;;;1.83;;
28447;SDS011;15675;52.870;-1.416;2023-07-13T14:20:20;3.33;;;1.83;;
28447;SDS011;15675;52.870;-1.416;2023-07-13T14:22:49;3.65;;;2.05;;
28447;SDS011;15675;52.870;-1.416;2023-07-13T14:25:16;3.95;;;1.85;;
28447;SDS011;15675;52.870;-1.416;2023-07-13T14:27:44;3.10;;;1.85;;
28447;SDS011;15675;52.870;-1.416;2023-07-13T14:30:15;8.73;;;2.08;;
28447;SDS011;15675;52.870;-1.416;2023-07-13T14:32:46;3.95;;;1.73;;
28447;SDS011;15675;52.870;-1.416;2023-07-13T14:35:12;3.75;;;2.00;;
28447;SDS011;15675;52.870;-1.416;2023-07-13T14:37:41;2.42;;;1.40;;
28447;SDS011;15675;52.870;-1.416;2023-07-13T14:40:13;4.38;;;1.85;;
28447;SDS011;15675;52.870;-1.416;2023-07-13T14:42:43;4.68;;;2.00;;
28447;SDS011;15675;52.870;-1.416;2023-07-13T14:45:12;5.28;;;2.05;;
28447;SDS011;15675;52.870;-1.416;2023-07-13T14:47:40;2.95;;;1.77;;
28447;SDS011;15675;52.870;-1.416;2023-07-13T14:50:11;4.22;;;1.95;;
28447;SDS011;15675;52.870;-1.416;2023-07-13T14:52:41;6.07;;;2.00;;
28447;SDS011;15675;52.870;-1.416;2023-07-13T14:55:10;4.80;;;2.00;;
28447;SDS011;15675;52.870;-1.416;2023-07-13T14:57:39;4.55;;;1.83;;
28447;SDS011;15675;52.870;-1.416;2023-07-13T15:00:12;3.17;;;1.77;;
28447;SDS011;15675;52.870;-1.416;2023-07-13T15:05:23;4.68;;;1.70;;
28447;SDS011;15675;52.870;-1.416;2023-07-13T15:07:58;3.42;;;2.08;;
28447;SDS011;15675;52.870;-1.416;2023-07-13T15:10:27;4.07;;;1.90;;
28447;SDS011;15675;52.870;-1.416;2023-07-13T15:12:59;3.80;;;2.10;;
28447;SDS011;15675;52.870;-1.416;2023-07-13T15:15:28;5.88;;;2.10;;
28447;SDS011;15675;52.870;-1.416;2023-07-13T15:17:56;5.55;;;1.90;;
28447;SDS011;15675;52.870;-1.416;2023-07-13T15:20:25;7.25;;;2.63;;
28447;SDS011;15675;52.870;-1.416;2023-07-13T15:22:54;6.05;;;2.08;;
28447;SDS011;15675;52.870;-1.416;2023-07-13T15:25:21;5.00;;;2.05;;
28447;SDS011;15675;52.870;-1.416;2023-07-13T15:27:50;7.38;;;2.55;;
28447;SDS011;15675;52.870;-1.416;2023-07-13T15:30:16;6.38;;;2.40;;
28447;SDS011;15675;52.870;-1.416;2023-07-13T15:32:42;5.82;;;2.17;;
28447;SDS011;15675;52.870;-1.416;2023-07-13T15:35:19;4.60;;;2.45;;
28447;SDS011;15675;52.870;-1.416;2023-07-13T15:37:48;3.80;;;2.20;;
28447;SDS011;15675;52.870;-1.416;2023-07-13T15:40:15;4.28;;;2.20;;
28447;SDS011;15675;52.870;-1.416;2023-07-13T15:42:41;7.47;;;2.45;;